sensor_id;sensor_type;location;lat;lon;timestamp;pressure;altitude;pressure_sealevel;temperature;humidity
45525;BME280;31437;58.350;13.828;2022-08-16T00:01:09;99365.34;;;17.17;100.00
45525;BME280;31437;58.350;13.828;2022-08-16T00:03:34;99360.91;;;17.18;100.00
45525;BME280;31437;58.350;13.828;2022-08-16T00:06:00;99361.59;;;17.20;100.00
45525;BME280;31437;58.350;13.828;2022-08-16T00:08:25;99357.81;;;17.22;100.00
45525;BME280;31437;58.350;13.828;2022-08-16T00:10:50;99358.63;;;17.23;100.00
45525;BME280;31437;58.350;13.828;2022-08-16T00:13:16;99359.75;;;17.20;100.00
45525;BME280;31437;58.350;13.828;2022-08-16T00:15:43;99356.44;;;17.18;100.00
45525;BME280;31437;58.350;13.828;2022-08-16T00:18:10;99362.88;;;17.16;100.00
45525;BME280;31437;58.350;13.828;2022-08-16T00:20:36;99365.94;;;17.11;100.00
45525;BME280;31437;58.350;13.828;2022-08-16T00:23:02;99367.06;;;17.09;100.00
45525;BME280;31437;58.350;13.828;2022-08-16T00:25:27;99369.88;;;17.07;100.00
45525;BME280;31437;58.350;13.828;2022-08-16T00:27:52;99364.69;;;17.06;100.00
45525;BME280;31437;58.350;13.828;2022-08-16T00:30:18;99368.88;;;17.08;100.00
45525;BME280;31437;58.350;13.828;2022-08-16T00:32:45;99365.41;;;17.08;100.00
45525;BME280;31437;58.350;13.828;2022-08-16T00:35:13;99361.75;;;17.09;100.00
45525;BME280;31437;58.350;13.828;2022-08-16T00:37:38;99370.69;;;17.08;100.00
45525;BME280;31437;58.350;13.828;2022-08-16T00:40:04;99375.16;;;17.07;100.00
45525;BME280;31437;58.350;13.828;2022-08-16T00:42:31;99363.03;;;17.05;100.00
45525;BME280;31437;58.350;13.828;2022-08-16T00:44:58;99379.94;;;17.03;100.00
45525;BME280;31437;58.350;13.828;2022-08-16T00:47:24;99382.56;;;17.03;100.00
45525;BME280;31437;58.350;13.828;2022-08-16T00:49:50;99384.66;;;17.00;100.00
45525;BME280;31437;58.350;13.828;2022-08-16T00:52:16;99385.63;;;16.99;100.00
45525;BME280;31437;58.350;13.828;2022-08-16T00:54:41;99371.41;;;17.00;100.00
45525;BME280;31437;58.350;13.828;2022-08-16T00:57:07;99371.56;;;16.98;100.00
45525;BME280;31437;58.350;13.828;2022-08-16T00:59:33;99365.72;;;16.95;100.00
45525;BME280;31437;58.350;13.828;2022-08-16T01:01:59;99368.38;;;16.95;100.00
45525;BME280;31437;58.350;13.828;2022-08-16T01:04:26;99358.75;;;16.94;100.00
45525;BME280;31437;58.350;13.828;2022-08-16T01:06:52;99359.72;;;16.93;100.00
45525;BME280;31437;58.350;13.828;2022-08-16T01:09:18;99366.31;;;16.89;100.00
45525;BME280;31437;58.350;13.828;2022-08-16T01:11:43;99354.31;;;16.85;100.00
45525;BME280;31437;58.350;13.828;2022-08-16T01:14:10;99358.34;;;16.89;100.00
45525;BME280;31437;58.350;13.828;2022-08-16T01:16:38;99349.41;;;16.90;100.00
45525;BME280;31437;58.350;13.828;2022-08-16T01:19:17;99352.06;;;16.90;100.00
45525;BME280;31437;58.350;13.828;2022-08-16T01:26:55;99355.13;;;16.85;100.00
45525;BME280;31437;58.350;13.828;2022-08-16T01:29:24;99350.28;;;16.80;100.00
45525;BME280;31437;58.350;13.828;2022-08-16T01:31:51;99366.19;;;16.80;100.00
45525;BME280;31437;58.350;13.828;2022-08-16T01:34:16;99361.41;;;16.74;100.00
45525;BME280;31437;58.350;13.828;2022-08-16T01:36:42;99358.34;;;16.69;100.00
45525;BME280;31437;58.350;13.828;2022-08-16T01:39:10;99348.06;;;16.56;100.00
45525;BME280;31437;58.350;13.828;2022-08-16T01:41:35;99363.53;;;16.61;100.00
45525;BME280;31437;58.350;13.828;2022-08-16T01:44:01;99361.97;;;16.58;100.00
45525;BME280;31437;58.350;13.828;2022-08-16T01:48:56;99362.44;;;16.54;100.00
45525;BME280;31437;58.350;13.828;2022-08-16T01:51:22;99358.38;;;16.60;100.00
45525;BME280;31437;58.350;13.828;2022-08-16T01:53:49;99353.91;;;16.60;100.00
45525;BME280;31437;58.350;13.828;2022-08-16T01:56:14;99353.91;;;16.60;100.00
45525;BME280;31437;58.350;13.828;2022-08-16T01:58:39;99354.47;;;16.64;100.00
45525;BME280;31437;58.350;13.828;2022-08-16T02:01:05;99356.28;;;16.63;100.00
45525;BME280;31437;58.350;13.828;2022-08-16T02:03:31;99357.66;;;16.67;100.00
45525;BME280;31437;58.350;13.828;2022-08-16T02:05:56;99352.06;;;16.70;100.00
45525;BME280;31437;58.350;13.828;2022-08-16T02:08:21;99340.53;;;16.71;100.00
45525;BME280;31437;58.350;13.828;2022-08-16T02:10:47;99352.50;;;16.75;100.00
45525;BME280;31437;58.350;13.828;2022-08-16T02:13:12;99344.53;;;16.75;100.00
45525;BME280;31437;58.350;13.828;2022-08-16T02:15:37;99348.88;;;16.76;100.00
45525;BME280;31437;58.350;13.828;2022-08-16T02:18:05;99341.50;;;16.80;100.00
45525;BME280;31437;58.350;13.828;2022-08-16T02:20:32;99340.53;;;16.81;100.00
45525;BME280;31437;58.350;13.828;2022-08-16T02:22:58;99334.41;;;16.80;100.00
45525;BME280;31437;58.350;13.828;2022-08-16T02:25:24;99339.69;;;16.80;100.00
45525;BME280;31437;58.350;13.828;2022-08-16T02:27:51;99322.81;;;16.82;100.00
45525;BME280;31437;58.350;13.828;2022-08-16T02:30:18;99325.34;;;16.83;100.00
45525;BME280;31437;58.350;13.828;2022-08-16T02:32:45;99331.59;;;16.82;100.00
45525;BME280;31437;58.350;13.828;2022-08-16T02:35:11;99324.78;;;16.79;100.00
45525;BME280;31437;58.350;13.828;2022-08-16T02:37:37;99321.44;;;16.77;100.00
45525;BME280;31437;58.350;13.828;2022-08-16T02:40:03;99320.88;;;16.74;100.00
45525;BME280;31437;58.350;13.828;2022-08-16T02:42:29;99320.28;;;16.70;100.00
45525;BME280;31437;58.350;13.828;2022-08-16T02:44:54;99332.03;;;16.68;100.00
45525;BME280;31437;58.350;13.828;2022-08-16T02:47:20;99324.50;;;16.63;100.00
45525;BME280;31437;58.350;13.828;2022-08-16T02:49:45;99333.72;;;16.59;100.00
45525;BME280;31437;58.350;13.828;2022-08-16T02:52:10;99325.38;;;16.54;100.00
45525;BME280;31437;58.350;13.828;2022-08-16T02:54:36;99319.25;;;16.53;100.00
45525;BME280;31437;58.350;13.828;2022-08-16T02:57:01;99318.13;;;16.56;100.00
45525;BME280;31437;58.350;13.828;2022-08-16T02:59:27;99331.50;;;16.54;100.00
45525;BME280;31437;58.350;13.828;2022-08-16T03:01:53;99336.25;;;16.51;100.00
45525;BME280;31437;58.350;13.828;2022-08-16T03:04:18;99340.28;;;16.45;100.00
45525;BME280;31437;58.350;13.828;2022-08-16T03:06:44;99339.56;;;16.43;100.00
45525;BME280;31437;58.350;13.828;2022-08-16T03:09:09;99347.81;;;16.40;100.00
45525;BME280;31437;58.350;13.828;2022-08-16T03:11:34;99350.72;;;16.37;100.00
45525;BME280;31437;58.350;13.828;2022-08-16T03:14:00;99329.03;;;16.24;100.00
45525;BME280;31437;58.350;13.828;2022-08-16T03:16:25;99338.59;;;16.34;100.00
45525;BME280;31437;58.350;13.828;2022-08-16T03:18:50;99336.13;;;16.33;100.00
45525;BME280;31437;58.350;13.828;2022-08-16T03:21:16;99340.59;;;16.32;100.00
45525;BME280;31437;58.350;13.828;2022-08-16T03:23:41;99329.13;;;16.32;100.00
45525;BME280;31437;58.350;13.828;2022-08-16T03:26:06;99326.38;;;16.33;100.00
45525;BME280;31437;58.350;13.828;2022-08-16T03:28:32;99326.22;;;16.35;100.00
45525;BME280;31437;58.350;13.828;2022-08-16T03:30:57;99328.19;;;16.33;100.00
45525;BME280;31437;58.350;13.828;2022-08-16T03:33:22;99311.31;;;16.34;100.00
45525;BME280;31437;58.350;13.828;2022-08-16T03:35:48;99319.97;;;16.36;100.00
45525;BME280;31437;58.350;13.828;2022-08-16T03:38:14;99308.09;;;16.40;100.00
45525;BME280;31437;58.350;13.828;2022-08-16T03:40:40;99321.75;;;16.45;100.00
45525;BME280;31437;58.350;13.828;2022-08-16T03:43:07;99309.88;;;16.49;100.00
45525;BME280;31437;58.350;13.828;2022-08-16T03:45:33;99322.72;;;16.54;100.00
45525;BME280;31437;58.350;13.828;2022-08-16T03:47:59;99318.13;;;16.56;100.00
45525;BME280;31437;58.350;13.828;2022-08-16T03:50:25;99318.97;;;16.56;100.00
45525;BME280;31437;58.350;13.828;2022-08-16T03:52:50;99319.09;;;16.55;100.00
45525;BME280;31437;58.350;13.828;2022-08-16T03:55:16;99316.69;;;16.62;100.00
45525;BME280;31437;58.350;13.828;2022-08-16T03:57:41;99311.09;;;16.65;100.00
45525;BME280;31437;58.350;13.828;2022-08-16T04:00:11;99319.75;;;16.67;100.00
45525;BME280;31437;58.350;13.828;2022-08-16T04:02:37;99309.88;;;16.69;100.00
45525;BME280;31437;58.350;13.828;2022-08-16T04:05:03;99315.56;;;16.74;100.00
45525;BME280;31437;58.350;13.828;2022-08-16T04:07:29;99312.50;;;16.78;100.00
45525;BME280;31437;58.350;13.828;2022-08-16T04:09:54;99309.44;;;16.83;100.00
45525;BME280;31437;58.350;13.828;2022-08-16T04:12:21;99319.59;;;16.88;100.00
45525;BME280;31437;58.350;13.828;2022-08-16T04:14:46;99319.16;;;16.92;100.00
45525;BME280;31437;58.350;13.828;2022-08-16T04:17:12;99332.94;;;16.96;100.00
45525;BME280;31437;58.350;13.828;2022-08-16T04:19:39;99337.81;;;17.00;100.00
45525;BME280;31437;58.350;13.828;2022-08-16T04:22:05;99344.50;;;17.05;100.00
45525;BME280;31437;58.350;13.828;2022-08-16T04:24:30;99352.03;;;17.09;100.00
45525;BME280;31437;58.350;13.828;2022-08-16T04:26:56;99359.81;;;17.11;100.00
45525;BME280;31437;58.350;13.828;2022-08-16T04:29:21;99357.69;;;17.14;100.00
45525;BME280;31437;58.350;13.828;2022-08-16T04:31:47;99369.81;;;17.17;100.00
45525;BME280;31437;58.350;13.828;2022-08-16T04:34:12;99371.06;;;17.22;100.00
45525;BME280;31437;58.350;13.828;2022-08-16T04:36:38;99384.03;;;17.25;100.00
45525;BME280;31437;58.350;13.828;2022-08-16T04:39:03;99388.06;;;17.30;100.00
45525;BME280;31437;58.350;13.828;2022-08-16T04:41:29;99389.56;;;17.32;100.00
45525;BME280;31437;58.350;13.828;2022-08-16T04:43:55;99398.09;;;17.36;100.00
45525;BME280;31437;58.350;13.828;2022-08-16T04:46:20;99389.97;;;17.37;100.00
45525;BME280;31437;58.350;13.828;2022-08-16T04:48:46;99399.47;;;17.40;100.00
45525;BME280;31437;58.350;13.828;2022-08-16T04:51:11;99400.00;;;17.43;100.00
45525;BME280;31437;58.350;13.828;2022-08-16T04:53:36;99396.22;;;17.46;100.00
45525;BME280;31437;58.350;13.828;2022-08-16T04:56:02;99388.81;;;17.49;100.00
45525;BME280;31437;58.350;13.828;2022-08-16T04:58:27;99378.91;;;17.52;100.00
45525;BME280;31437;58.350;13.828;2022-08-16T05:00:53;99378.59;;;17.55;100.00
45525;BME280;31437;58.350;13.828;2022-08-16T05:03:18;99379.28;;;17.57;100.00
45525;BME280;31437;58.350;13.828;2022-08-16T05:05:44;99381.50;;;17.61;100.00
45525;BME280;31437;58.350;13.828;2022-08-16T05:08:11;99364.44;;;17.64;100.00
45525;BME280;31437;58.350;13.828;2022-08-16T05:10:36;99368.63;;;17.66;100.00
45525;BME280;31437;58.350;13.828;2022-08-16T05:13:02;99371.97;;;17.68;100.00
45525;BME280;31437;58.350;13.828;2022-08-16T05:15:28;99359.38;;;17.70;100.00
45525;BME280;31437;58.350;13.828;2022-08-16T05:17:53;99365.53;;;17.71;100.00
45525;BME280;31437;58.350;13.828;2022-08-16T05:20:19;99362.59;;;17.74;100.00
45525;BME280;31437;58.350;13.828;2022-08-16T05:22:45;99360.59;;;17.76;100.00
45525;BME280;31437;58.350;13.828;2022-08-16T05:25:11;99366.50;;;17.80;100.00
45525;BME280;31437;58.350;13.828;2022-08-16T05:27:37;99367.16;;;17.82;100.00
45525;BME280;31437;58.350;13.828;2022-08-16T05:30:03;99358.91;;;17.85;100.00
45525;BME280;31437;58.350;13.828;2022-08-16T05:32:28;99348.16;;;17.86;100.00
45525;BME280;31437;58.350;13.828;2022-08-16T05:34:53;99357.78;;;17.87;100.00
45525;BME280;31437;58.350;13.828;2022-08-16T05:37:19;99359.31;;;17.90;100.00
45525;BME280;31437;58.350;13.828;2022-08-16T05:39:47;99350.50;;;17.89;100.00
45525;BME280;31437;58.350;13.828;2022-08-16T05:42:12;99350.81;;;17.86;100.00
45525;BME280;31437;58.350;13.828;2022-08-16T05:44:37;99339.22;;;17.87;100.00
45525;BME280;31437;58.350;13.828;2022-08-16T05:47:03;99337.38;;;17.88;100.00
45525;BME280;31437;58.350;13.828;2022-08-16T05:49:28;99333.59;;;17.90;100.00
45525;BME280;31437;58.350;13.828;2022-08-16T05:51:54;99328.28;;;17.90;100.00
45525;BME280;31437;58.350;13.828;2022-08-16T05:54:20;99328.47;;;17.89;100.00
45525;BME280;31437;58.350;13.828;2022-08-16T05:56:45;99323.47;;;17.86;100.00
45525;BME280;31437;58.350;13.828;2022-08-16T05:59:11;99318.16;;;17.86;100.00
45525;BME280;31437;58.350;13.828;2022-08-16T06:01:37;99324.41;;;17.85;100.00
45525;BME280;31437;58.350;13.828;2022-08-16T06:04:03;99330.72;;;17.84;100.00
45525;BME280;31437;58.350;13.828;2022-08-16T06:06:28;99331.56;;;17.84;100.00
45525;BME280;31437;58.350;13.828;2022-08-16T06:08:54;99334.06;;;17.86;100.00
45525;BME280;31437;58.350;13.828;2022-08-16T06:11:19;99332.25;;;17.86;100.00
45525;BME280;31437;58.350;13.828;2022-08-16T06:13:44;99330.28;;;17.88;100.00
45525;BME280;31437;58.350;13.828;2022-08-16T06:16:11;99337.09;;;17.91;100.00
45525;BME280;31437;58.350;13.828;2022-08-16T06:18:37;99330.81;;;17.92;100.00
45525;BME280;31437;58.350;13.828;2022-08-16T06:21:02;99328.69;;;17.96;100.00
45525;BME280;31437;58.350;13.828;2022-08-16T06:23:28;99329.06;;;18.01;100.00
45525;BME280;31437;58.350;13.828;2022-08-16T06:25:53;99320.63;;;18.05;100.00
45525;BME280;31437;58.350;13.828;2022-08-16T06:28:18;99320.88;;;18.12;100.00
45525;BME280;31437;58.350;13.828;2022-08-16T06:30:44;99313.44;;;18.15;100.00
45525;BME280;31437;58.350;13.828;2022-08-16T06:33:09;99324.16;;;18.24;100.00
45525;BME280;31437;58.350;13.828;2022-08-16T06:35:35;99320.72;;;18.31;100.00
45525;BME280;31437;58.350;13.828;2022-08-16T06:38:01;99317.13;;;18.41;100.00
45525;BME280;31437;58.350;13.828;2022-08-16T06:40:26;99312.56;;;18.51;100.00
45525;BME280;31437;58.350;13.828;2022-08-16T06:42:51;99318.16;;;18.66;100.00
45525;BME280;31437;58.350;13.828;2022-08-16T06:45:17;99313.25;;;18.79;100.00
45525;BME280;31437;58.350;13.828;2022-08-16T06:47:43;99317.88;;;18.95;100.00
45525;BME280;31437;58.350;13.828;2022-08-16T06:50:09;99316.63;;;19.15;100.00
45525;BME280;31437;58.350;13.828;2022-08-16T06:52:34;99327.69;;;19.37;100.00
45525;BME280;31437;58.350;13.828;2022-08-16T06:55:02;99332.94;;;19.63;100.00
45525;BME280;31437;58.350;13.828;2022-08-16T06:57:27;99327.19;;;19.84;100.00
45525;BME280;31437;58.350;13.828;2022-08-16T06:59:52;99332.41;;;20.10;100.00
45525;BME280;31437;58.350;13.828;2022-08-16T07:02:18;99336.56;;;20.37;100.00
45525;BME280;31437;58.350;13.828;2022-08-16T07:04:43;99343.25;;;20.66;100.00
45525;BME280;31437;58.350;13.828;2022-08-16T07:07:09;99342.72;;;20.86;100.00
45525;BME280;31437;58.350;13.828;2022-08-16T07:09:34;99334.50;;;21.04;100.00
45525;BME280;31437;58.350;13.828;2022-08-16T07:11:59;99340.41;;;21.31;100.00
45525;BME280;31437;58.350;13.828;2022-08-16T07:14:25;99355.97;;;21.59;100.00
45525;BME280;31437;58.350;13.828;2022-08-16T07:16:50;99348.09;;;21.96;100.00
45525;BME280;31437;58.350;13.828;2022-08-16T07:19:15;99345.53;;;22.34;100.00
45525;BME280;31437;58.350;13.828;2022-08-16T07:21:41;99356.91;;;22.89;100.00
45525;BME280;31437;58.350;13.828;2022-08-16T07:24:06;99363.88;;;23.43;100.00
45525;BME280;31437;58.350;13.828;2022-08-16T07:26:32;99353.31;;;23.86;100.00
45525;BME280;31437;58.350;13.828;2022-08-16T07:28:58;99352.94;;;24.32;100.00
45525;BME280;31437;58.350;13.828;2022-08-16T07:31:23;99344.25;;;24.44;100.00
45525;BME280;31437;58.350;13.828;2022-08-16T07:33:49;99335.81;;;24.76;100.00
45525;BME280;31437;58.350;13.828;2022-08-16T07:36:14;99315.41;;;24.81;100.00
45525;BME280;31437;58.350;13.828;2022-08-16T07:38:40;99282.91;;;24.63;100.00
45525;BME280;31437;58.350;13.828;2022-08-16T07:41:06;99258.16;;;24.33;100.00
45525;BME280;31437;58.350;13.828;2022-08-16T07:43:31;99233.09;;;24.19;100.00
45525;BME280;31437;58.350;13.828;2022-08-16T07:45:57;99210.63;;;23.92;100.00
45525;BME280;31437;58.350;13.828;2022-08-16T07:48:23;99208.88;;;23.84;100.00
45525;BME280;31437;58.350;13.828;2022-08-16T07:50:49;99184.91;;;23.54;100.00
45525;BME280;31437;58.350;13.828;2022-08-16T07:53:14;99178.53;;;23.34;100.00
45525;BME280;31437;58.350;13.828;2022-08-16T07:55:40;99174.75;;;23.28;100.00
45525;BME280;31437;58.350;13.828;2022-08-16T07:58:05;99177.38;;;23.22;100.00
45525;BME280;31437;58.350;13.828;2022-08-16T08:00:32;99177.78;;;23.04;100.00
45525;BME280;31437;58.350;13.828;2022-08-16T08:02:57;99184.03;;;23.11;100.00
45525;BME280;31437;58.350;13.828;2022-08-16T08:05:24;99185.66;;;23.27;100.00
45525;BME280;31437;58.350;13.828;2022-08-16T08:07:50;99189.00;;;23.14;100.00
45525;BME280;31437;58.350;13.828;2022-08-16T08:10:17;99186.41;;;23.21;100.00
45525;BME280;31437;58.350;13.828;2022-08-16T08:12:43;99189.72;;;23.23;100.00
45525;BME280;31437;58.350;13.828;2022-08-16T08:15:09;99193.72;;;23.12;100.00
45525;BME280;31437;58.350;13.828;2022-08-16T08:17:34;99195.44;;;23.20;100.00
45525;BME280;31437;58.350;13.828;2022-08-16T08:20:03;99197.28;;;23.19;100.00
45525;BME280;31437;58.350;13.828;2022-08-16T08:22:28;99193.41;;;23.22;100.00
45525;BME280;31437;58.350;13.828;2022-08-16T08:24:53;99200.13;;;23.32;100.00
45525;BME280;31437;58.350;13.828;2022-08-16T08:27:19;99200.47;;;23.44;100.00
45525;BME280;31437;58.350;13.828;2022-08-16T08:29:44;99197.41;;;23.47;100.00
45525;BME280;31437;58.350;13.828;2022-08-16T08:32:09;99208.88;;;23.63;100.00
45525;BME280;31437;58.350;13.828;2022-08-16T08:34:35;99201.69;;;23.85;100.00
45525;BME280;31437;58.350;13.828;2022-08-16T08:37:00;99194.25;;;24.08;100.00
45525;BME280;31437;58.350;13.828;2022-08-16T08:39:25;99197.72;;;24.30;100.00
45525;BME280;31437;58.350;13.828;2022-08-16T08:41:50;99189.47;;;24.53;100.00
45525;BME280;31437;58.350;13.828;2022-08-16T08:44:16;99184.16;;;24.66;100.00
45525;BME280;31437;58.350;13.828;2022-08-16T08:46:42;99166.06;;;24.82;100.00
45525;BME280;31437;58.350;13.828;2022-08-16T08:49:07;99167.53;;;24.84;100.00
45525;BME280;31437;58.350;13.828;2022-08-16T08:51:33;99159.72;;;24.96;100.00
45525;BME280;31437;58.350;13.828;2022-08-16T08:53:58;99154.84;;;25.13;100.00
45525;BME280;31437;58.350;13.828;2022-08-16T08:56:24;99164.38;;;25.15;100.00
45525;BME280;31437;58.350;13.828;2022-08-16T08:58:49;99147.88;;;25.19;100.00
45525;BME280;31437;58.350;13.828;2022-08-16T09:01:16;99130.69;;;25.06;100.00
45525;BME280;31437;58.350;13.828;2022-08-16T09:03:43;99130.72;;;25.20;100.00
45525;BME280;31437;58.350;13.828;2022-08-16T09:06:08;99139.69;;;25.60;100.00
45525;BME280;31437;58.350;13.828;2022-08-16T09:08:34;99126.84;;;26.09;100.00
45525;BME280;31437;58.350;13.828;2022-08-16T09:10:59;99118.34;;;26.32;100.00
45525;BME280;31437;58.350;13.828;2022-08-16T09:13:25;99105.88;;;26.57;100.00
45525;BME280;31437;58.350;13.828;2022-08-16T09:15:51;99095.34;;;26.56;100.00
45525;BME280;31437;58.350;13.828;2022-08-16T09:18:17;99095.09;;;27.02;100.00
45525;BME280;31437;58.350;13.828;2022-08-16T09:20:43;99086.31;;;27.20;100.00
45525;BME280;31437;58.350;13.828;2022-08-16T09:23:08;99077.00;;;27.23;100.00
45525;BME280;31437;58.350;13.828;2022-08-16T09:25:34;99068.31;;;27.21;100.00
45525;BME280;31437;58.350;13.828;2022-08-16T09:28:00;99065.88;;;27.12;100.00
45525;BME280;31437;58.350;13.828;2022-08-16T09:30:25;99049.75;;;27.06;100.00
45525;BME280;31437;58.350;13.828;2022-08-16T09:32:51;99049.72;;;27.12;100.00
45525;BME280;31437;58.350;13.828;2022-08-16T09:35:19;99048.72;;;27.07;100.00
45525;BME280;31437;58.350;13.828;2022-08-16T09:37:44;99051.31;;;26.88;100.00
45525;BME280;31437;58.350;13.828;2022-08-16T09:40:10;99047.28;;;26.72;100.00
45525;BME280;31437;58.350;13.828;2022-08-16T09:42:35;99036.19;;;26.49;100.00
45525;BME280;31437;58.350;13.828;2022-08-16T09:45:01;99038.91;;;26.42;100.00
45525;BME280;31437;58.350;13.828;2022-08-16T09:47:28;99045.28;;;26.55;100.00
45525;BME280;31437;58.350;13.828;2022-08-16T09:49:53;99044.09;;;26.50;100.00
45525;BME280;31437;58.350;13.828;2022-08-16T09:52:18;99047.50;;;26.71;100.00
45525;BME280;31437;58.350;13.828;2022-08-16T09:54:44;99042.78;;;26.98;100.00
45525;BME280;31437;58.350;13.828;2022-08-16T09:57:09;99038.06;;;27.25;100.00
45525;BME280;31437;58.350;13.828;2022-08-16T09:59:35;99024.38;;;27.52;100.00
45525;BME280;31437;58.350;13.828;2022-08-16T10:02:00;99016.66;;;27.55;100.00
45525;BME280;31437;58.350;13.828;2022-08-16T10:04:26;99009.06;;;27.71;100.00
45525;BME280;31437;58.350;13.828;2022-08-16T10:06:52;99012.19;;;27.68;100.00
45525;BME280;31437;58.350;13.828;2022-08-16T10:09:18;99017.03;;;27.84;100.00
45525;BME280;31437;58.350;13.828;2022-08-16T10:11:43;99007.94;;;28.03;100.00
45525;BME280;31437;58.350;13.828;2022-08-16T10:14:27;99000.50;;;27.99;100.00
45525;BME280;31437;58.350;13.828;2022-08-16T10:16:58;98991.88;;;28.08;100.00
45525;BME280;31437;58.350;13.828;2022-08-16T10:19:24;98982.53;;;28.11;100.00
45525;BME280;31437;58.350;13.828;2022-08-16T10:21:49;98972.97;;;28.15;100.00
45525;BME280;31437;58.350;13.828;2022-08-16T10:24:14;98978.34;;;28.15;100.00
45525;BME280;31437;58.350;13.828;2022-08-16T10:26:40;98976.63;;;28.02;100.00
45525;BME280;31437;58.350;13.828;2022-08-16T10:29:05;98968.31;;;28.04;100.00
45525;BME280;31437;58.350;13.828;2022-08-16T10:31:31;98959.88;;;28.00;100.00
45525;BME280;31437;58.350;13.828;2022-08-16T10:33:56;98966.34;;;28.11;100.00
45525;BME280;31437;58.350;13.828;2022-08-16T10:36:22;98955.66;;;28.04;100.00
45525;BME280;31437;58.350;13.828;2022-08-16T10:38:47;98958.59;;;27.84;100.00
45525;BME280;31437;58.350;13.828;2022-08-16T10:41:12;98953.13;;;27.91;100.00
45525;BME280;31437;58.350;13.828;2022-08-16T10:43:38;98954.09;;;27.97;100.00
45525;BME280;31437;58.350;13.828;2022-08-16T10:46:06;98952.31;;;27.91;100.00
45525;BME280;31437;58.350;13.828;2022-08-16T10:48:31;98942.41;;;27.66;100.00
45525;BME280;31437;58.350;13.828;2022-08-16T10:50:57;98942.53;;;27.53;100.00
45525;BME280;31437;58.350;13.828;2022-08-16T10:53:22;98944.66;;;27.51;100.00
45525;BME280;31437;58.350;13.828;2022-08-16T10:55:48;98945.53;;;27.45;100.00
45525;BME280;31437;58.350;13.828;2022-08-16T10:58:13;98951.81;;;27.38;100.00
45525;BME280;31437;58.350;13.828;2022-08-16T11:00:40;98956.97;;;27.40;100.00
45525;BME280;31437;58.350;13.828;2022-08-16T11:03:07;98963.63;;;27.56;100.00
45525;BME280;31437;58.350;13.828;2022-08-16T11:05:34;98960.94;;;27.56;100.00
45525;BME280;31437;58.350;13.828;2022-08-16T11:08:00;98959.00;;;27.63;100.00
45525;BME280;31437;58.350;13.828;2022-08-16T11:10:27;98950.34;;;27.79;100.00
45525;BME280;31437;58.350;13.828;2022-08-16T11:12:53;98950.94;;;28.00;100.00
45525;BME280;31437;58.350;13.828;2022-08-16T11:15:18;98934.56;;;28.01;100.00
45525;BME280;31437;58.350;13.828;2022-08-16T11:17:44;98934.94;;;28.05;100.00
45525;BME280;31437;58.350;13.828;2022-08-16T11:20:11;98924.06;;;28.12;100.00
45525;BME280;31437;58.350;13.828;2022-08-16T11:22:39;98920.09;;;28.14;100.00
45525;BME280;31437;58.350;13.828;2022-08-16T11:25:07;98919.97;;;27.91;100.00
45525;BME280;31437;58.350;13.828;2022-08-16T11:27:32;98929.41;;;27.81;100.00
45525;BME280;31437;58.350;13.828;2022-08-16T11:29:57;98920.88;;;27.84;100.00
45525;BME280;31437;58.350;13.828;2022-08-16T11:32:24;98909.94;;;27.61;100.00
45525;BME280;31437;58.350;13.828;2022-08-16T11:34:49;98915.91;;;27.45;100.00
45525;BME280;31437;58.350;13.828;2022-08-16T11:37:14;98930.75;;;27.29;100.00
45525;BME280;31437;58.350;13.828;2022-08-16T11:39:40;98937.78;;;27.05;100.00
45525;BME280;31437;58.350;13.828;2022-08-16T11:42:05;98935.75;;;26.75;100.00
45525;BME280;31437;58.350;13.828;2022-08-16T11:44:30;98935.44;;;26.58;100.00
45525;BME280;31437;58.350;13.828;2022-08-16T11:46:56;98944.63;;;26.37;100.00
45525;BME280;31437;58.350;13.828;2022-08-16T11:49:21;98945.34;;;26.19;100.00
45525;BME280;31437;58.350;13.828;2022-08-16T11:51:46;98961.97;;;25.96;100.00
45525;BME280;31437;58.350;13.828;2022-08-16T11:54:14;98966.94;;;25.79;100.00
45525;BME280;31437;58.350;13.828;2022-08-16T11:56:39;98977.75;;;25.59;100.00
45525;BME280;31437;58.350;13.828;2022-08-16T11:59:05;98996.59;;;25.33;100.00
45525;BME280;31437;58.350;13.828;2022-08-16T12:01:30;99026.25;;;24.98;100.00
45525;BME280;31437;58.350;13.828;2022-08-16T12:03:56;99038.47;;;24.46;100.00
45525;BME280;31437;58.350;13.828;2022-08-16T12:06:21;99040.88;;;23.93;100.00
45525;BME280;31437;58.350;13.828;2022-08-16T12:08:47;99057.59;;;23.45;100.00
45525;BME280;31437;58.350;13.828;2022-08-16T12:11:13;99060.88;;;22.98;100.00
45525;BME280;31437;58.350;13.828;2022-08-16T12:13:39;99060.41;;;22.58;100.00
45525;BME280;31437;58.350;13.828;2022-08-16T12:16:04;99065.50;;;22.23;100.00
45525;BME280;31437;58.350;13.828;2022-08-16T12:18:32;99064.56;;;21.86;100.00
45525;BME280;31437;58.350;13.828;2022-08-16T12:20:57;99061.13;;;21.63;100.00
45525;BME280;31437;58.350;13.828;2022-08-16T12:23:23;99058.84;;;21.37;100.00
45525;BME280;31437;58.350;13.828;2022-08-16T12:25:48;99055.16;;;21.15;100.00
45525;BME280;31437;58.350;13.828;2022-08-16T12:28:14;99046.97;;;20.93;100.00
45525;BME280;31437;58.350;13.828;2022-08-16T12:30:41;99035.94;;;20.73;100.00
45525;BME280;31437;58.350;13.828;2022-08-16T12:33:08;99037.72;;;20.58;100.00
45525;BME280;31437;58.350;13.828;2022-08-16T12:35:35;99048.91;;;20.45;100.00
45525;BME280;31437;58.350;13.828;2022-08-16T12:38:00;99062.13;;;20.30;100.00
45525;BME280;31437;58.350;13.828;2022-08-16T12:40:28;99067.97;;;20.17;100.00